createdAt,value
2023-01-28T00:02:12.116Z,10.93
2023-01-28T00:04:40.509Z,10.35
2023-01-28T00:07:09.125Z,10.45
2023-01-28T00:09:39.295Z,11.25
2023-01-28T00:12:07.741Z,10.52
2023-01-28T00:14:36.329Z,9.90
2023-01-28T00:17:05.846Z,12.30
2023-01-28T00:19:34.441Z,9.68
2023-01-28T00:22:04.416Z,10.13
2023-01-28T00:24:32.903Z,11.40
2023-01-28T00:27:01.379Z,9.57
2023-01-28T00:29:29.873Z,10.60
2023-01-28T00:31:58.385Z,10.88
2023-01-28T00:34:26.847Z,12.30
2023-01-28T00:36:58.146Z,12.30
2023-01-28T00:39:27.336Z,11.60
2023-01-28T00:41:55.786Z,12.10
2023-01-28T00:44:24.474Z,12.43
2023-01-28T00:46:53.064Z,13.68
2023-01-28T00:49:21.508Z,9.70
2023-01-28T00:51:50.076Z,11.10
2023-01-28T00:54:18.560Z,11.07
2023-01-28T00:56:46.957Z,10.63
2023-01-28T00:59:15.521Z,12.77
2023-01-28T01:01:44.252Z,10.10
2023-01-28T01:04:12.678Z,10.50
2023-01-28T01:06:41.114Z,10.32
2023-01-28T01:09:12.709Z,9.73
2023-01-28T01:11:41.262Z,13.32
2023-01-28T01:14:10.607Z,13.80
2023-01-28T01:16:39.024Z,9.70
2023-01-28T01:19:09.202Z,11.57
2023-01-28T01:21:37.568Z,10.77
2023-01-28T01:24:06.321Z,11.15
2023-01-28T01:26:34.879Z,11.15
2023-01-28T01:29:03.336Z,14.82
2023-01-28T01:31:31.771Z,10.15
2023-01-28T01:34:00.291Z,11.40
2023-01-28T01:36:28.667Z,12.82
2023-01-28T01:38:57.201Z,12.52
2023-01-28T01:41:32.084Z,12.27
2023-01-28T01:44:03.334Z,11.77
2023-01-28T01:46:45.453Z,12.87
2023-01-28T01:49:21.866Z,10.68
2023-01-28T01:52:13.204Z,11.52
2023-01-28T01:54:44.916Z,10.95
2023-01-28T01:57:19.984Z,10.05
2023-01-28T01:59:48.709Z,10.00
2023-01-28T02:02:17.625Z,12.27
2023-01-28T02:04:46.085Z,10.60
2023-01-28T02:07:16.108Z,11.98
2023-01-28T02:09:44.597Z,9.90
2023-01-28T02:12:22.083Z,11.40
2023-01-28T02:14:59.148Z,10.98
2023-01-28T02:17:28.387Z,11.55
2023-01-28T02:20:21.555Z,10.32
2023-01-28T02:23:18.981Z,12.95
2023-01-28T02:25:53.455Z,12.55
2023-01-28T02:28:43.608Z,11.40
2023-01-28T02:31:30.603Z,11.02
2023-01-28T02:34:26.959Z,11.45
2023-01-28T02:37:00.327Z,9.48
2023-01-28T02:39:40.758Z,10.25
2023-01-28T02:42:30.643Z,12.05
2023-01-28T02:44:59.104Z,11.38
2023-01-28T02:47:46.225Z,13.07
2023-01-28T02:50:17.465Z,13.05
2023-01-28T02:53:10.357Z,12.00
2023-01-28T02:56:09.767Z,12.15
2023-01-28T02:58:56.175Z,11.63
2023-01-28T03:01:44.609Z,15.07
2023-01-28T03:04:22.467Z,16.02
2023-01-28T03:06:55.990Z,15.07
2023-01-28T03:09:28.345Z,11.63
2023-01-28T03:12:23.375Z,13.80
2023-01-28T03:15:21.444Z,11.60
2023-01-28T03:18:15.616Z,11.23
2023-01-28T03:21:07.130Z,11.93
2023-01-28T03:24:24.298Z,12.73
2023-01-28T03:27:23.136Z,13.00
2023-01-28T03:30:15.247Z,14.43
2023-01-28T03:33:03.120Z,14.02
2023-01-28T03:35:53.106Z,13.38
2023-01-28T03:38:22.985Z,11.77
2023-01-28T03:41:03.026Z,14.23
2023-01-28T03:43:32.137Z,11.25
2023-01-28T03:46:00.853Z,13.48
2023-01-28T03:48:29.705Z,12.15
2023-01-28T03:51:01.379Z,13.02
2023-01-28T03:53:29.881Z,12.43
2023-01-28T03:55:58.499Z,13.68
2023-01-28T03:58:40.283Z,8.52
2023-01-28T04:01:08.941Z,11.13
2023-01-28T04:03:37.743Z,9.90
2023-01-28T04:06:09.106Z,7.43
2023-01-28T04:08:37.593Z,9.65
2023-01-28T04:11:19.997Z,9.20
2023-01-28T04:16:18.852Z,9.30
2023-01-28T04:18:47.789Z,7.25
2023-01-28T04:21:16.226Z,10.23
2023-01-28T04:23:44.728Z,9.02
2023-01-28T04:26:13.114Z,9.10
2023-01-28T04:28:41.561Z,8.85
2023-01-28T04:31:10.081Z,8.80
2023-01-28T04:33:38.463Z,10.05
2023-01-28T04:36:07.061Z,10.43
2023-01-28T04:38:35.826Z,8.60
2023-01-28T04:41:04.274Z,9.77
2023-01-28T04:43:32.671Z,8.95
2023-01-28T04:46:01.134Z,10.00
2023-01-28T04:48:31.330Z,9.13
2023-01-28T04:50:59.737Z,9.30
2023-01-28T04:53:28.242Z,9.63
2023-01-28T04:55:57.527Z,9.93
2023-01-28T04:58:26.249Z,9.93
2023-01-28T05:00:56.916Z,10.55
2023-01-28T05:03:25.555Z,8.95
2023-01-28T05:05:54.008Z,9.05
2023-01-28T05:08:22.604Z,11.32
2023-01-28T05:10:51.008Z,10.48
2023-01-28T05:13:19.460Z,7.82
2023-01-28T05:15:52.550Z,10.50
2023-01-28T05:18:21.219Z,9.13
2023-01-28T05:20:49.607Z,10.13
2023-01-28T05:23:18.130Z,11.75
2023-01-28T05:25:46.639Z,10.63
2023-01-28T05:28:18.612Z,10.07
2023-01-28T05:30:47.019Z,9.85
2023-01-28T05:33:15.423Z,10.38
2023-01-28T05:35:43.965Z,12.52
2023-01-28T05:38:15.118Z,9.27
2023-01-28T05:40:43.825Z,10.80
2023-01-28T05:43:12.257Z,10.95
2023-01-28T05:45:40.911Z,9.93
2023-01-28T05:48:09.458Z,15.10
2023-01-28T05:50:37.840Z,12.43
2023-01-28T05:53:06.992Z,10.38
2023-01-28T05:55:35.786Z,10.30
2023-01-28T05:58:04.224Z,11.52
2023-01-28T06:00:32.681Z,13.32
2023-01-28T06:03:01.139Z,11.80
2023-01-28T06:05:29.738Z,10.82
2023-01-28T06:07:58.262Z,9.77
2023-01-28T06:10:26.672Z,10.57
2023-01-28T06:12:55.132Z,10.88
2023-01-28T06:15:23.706Z,8.82
2023-01-28T06:17:52.100Z,11.18
2023-01-28T06:20:20.774Z,9.20
2023-01-28T06:22:53.042Z,9.20
2023-01-28T06:27:49.981Z,9.95
2023-01-28T06:30:18.881Z,10.48
2023-01-28T06:32:47.271Z,10.90
2023-01-28T06:35:15.888Z,9.57
2023-01-28T06:37:45.251Z,8.63
2023-01-28T06:40:14.014Z,9.40
2023-01-28T06:42:42.657Z,7.55
2023-01-28T06:45:11.615Z,9.23
2023-01-28T06:47:40.126Z,7.50
2023-01-28T06:50:09.233Z,10.02
2023-01-28T06:52:37.638Z,8.88
2023-01-28T06:55:06.319Z,9.05
2023-01-28T06:57:34.729Z,9.23
2023-01-28T07:00:04.292Z,10.75
2023-01-28T07:02:32.821Z,9.85
2023-01-28T07:05:02.255Z,8.70
2023-01-28T07:07:30.664Z,8.52
2023-01-28T07:09:59.129Z,9.57
2023-01-28T07:12:27.495Z,9.50
2023-01-28T07:14:55.969Z,10.23
2023-01-28T07:17:24.449Z,10.25
2023-01-28T07:19:52.852Z,9.52
2023-01-28T07:22:21.354Z,10.68
2023-01-28T07:24:49.794Z,7.85
2023-01-28T07:27:18.226Z,8.18
2023-01-28T07:29:46.664Z,10.70
2023-01-28T07:32:15.174Z,9.38
2023-01-28T07:34:43.929Z,10.02
2023-01-28T07:37:12.433Z,9.02
2023-01-28T07:39:40.864Z,10.52
2023-01-28T07:42:09.785Z,11.40
2023-01-28T07:44:38.677Z,12.25
2023-01-28T07:47:07.249Z,9.77
2023-01-28T07:49:35.714Z,11.98
2023-01-28T07:52:04.300Z,9.95
2023-01-28T07:54:32.927Z,9.35
2023-01-28T07:57:01.403Z,12.25
2023-01-28T07:59:29.847Z,9.05
2023-01-28T08:01:58.679Z,9.63
2023-01-28T08:04:27.382Z,10.55
2023-01-28T08:06:56.997Z,9.63
2023-01-28T08:09:25.451Z,10.25
2023-01-28T08:11:54.286Z,10.60
2023-01-28T08:14:22.761Z,13.13
2023-01-28T08:16:51.239Z,11.05
2023-01-28T08:19:21.724Z,9.75
2023-01-28T08:21:50.807Z,11.65
2023-01-28T08:24:19.381Z,10.05
2023-01-28T08:26:48.674Z,10.05
2023-01-28T08:29:17.049Z,12.43
2023-01-28T08:31:45.482Z,9.00
2023-01-28T08:34:13.955Z,10.32
2023-01-28T08:36:42.402Z,10.63
2023-01-28T08:39:10.814Z,11.65
2023-01-28T08:41:39.315Z,11.45
2023-01-28T08:44:07.771Z,10.73
2023-01-28T08:46:36.222Z,9.85
2023-01-28T08:49:04.835Z,9.15
2023-01-28T08:51:33.291Z,8.90
2023-01-28T08:54:02.313Z,11.68
2023-01-28T08:56:30.734Z,11.60
2023-01-28T08:58:59.154Z,10.68
2023-01-28T09:01:29.333Z,11.63
2023-01-28T09:03:57.952Z,10.10
2023-01-28T09:06:26.423Z,12.02
2023-01-28T09:08:57.702Z,11.88
2023-01-28T09:11:27.199Z,10.40
2023-01-28T09:13:57.816Z,12.65
2023-01-28T09:16:26.864Z,10.77
2023-01-28T09:18:55.465Z,9.50
2023-01-28T09:21:23.989Z,12.80
2023-01-28T09:23:55.605Z,12.20
2023-01-28T09:26:24.052Z,10.85
2023-01-28T09:28:52.515Z,10.45
2023-01-28T09:31:21.094Z,10.13
2023-01-28T09:33:54.855Z,9.52
2023-01-28T09:36:23.604Z,11.38
2023-01-28T09:38:52.318Z,10.85
2023-01-28T09:41:34.513Z,11.07
2023-01-28T09:44:21.235Z,10.70
2023-01-28T09:46:50.488Z,10.82
2023-01-28T09:49:30.001Z,11.65
2023-01-28T09:51:58.596Z,11.23
2023-01-28T09:54:55.400Z,10.85
2023-01-28T09:57:26.383Z,12.32
2023-01-28T09:59:54.855Z,11.35
2023-01-28T10:02:42.299Z,11.50
2023-01-28T10:05:23.161Z,11.43
2023-01-28T10:08:00.574Z,10.90
2023-01-28T10:10:38.517Z,11.57
2023-01-28T10:13:37.978Z,11.18
2023-01-28T10:16:06.503Z,12.60
2023-01-28T10:18:51.006Z,14.35
2023-01-28T10:21:49.664Z,11.48
2023-01-28T10:24:27.905Z,11.40
2023-01-28T10:26:57.385Z,13.38
2023-01-28T10:29:33.261Z,13.90
2023-01-28T10:32:29.182Z,14.93
2023-01-28T10:35:04.038Z,14.95
2023-01-28T10:37:35.585Z,12.15
2023-01-28T10:40:05.107Z,11.23
2023-01-28T10:42:38.642Z,15.00
2023-01-28T10:45:19.479Z,13.70
2023-01-28T10:48:09.704Z,10.18
2023-01-28T10:50:38.117Z,13.50
2023-01-28T10:53:06.738Z,13.27
2023-01-28T10:55:47.957Z,12.90
2023-01-28T10:58:26.874Z,11.30
2023-01-28T11:01:00.234Z,11.82
2023-01-28T11:03:30.822Z,12.68
2023-01-28T11:05:59.506Z,12.40
2023-01-28T11:08:30.256Z,11.60
2023-01-28T11:10:58.819Z,17.15
2023-01-28T11:13:30.093Z,12.27
2023-01-28T11:16:02.096Z,10.93
2023-01-28T11:18:33.432Z,11.60
2023-01-28T11:21:05.984Z,10.17
2023-01-28T11:23:41.070Z,10.65
2023-01-28T11:26:25.104Z,9.85
2023-01-28T11:28:53.876Z,11.05
2023-01-28T11:31:24.380Z,12.75
2023-01-28T11:34:01.914Z,9.65
2023-01-28T11:36:32.618Z,12.63
2023-01-28T11:39:05.540Z,11.88
2023-01-28T11:41:39.021Z,10.93
2023-01-28T11:44:17.856Z,11.18
2023-01-28T11:47:08.712Z,9.93
2023-01-28T11:50:02.810Z,10.75
2023-01-28T11:53:06.575Z,10.65
2023-01-28T11:56:01.292Z,11.65
2023-01-28T11:58:38.743Z,11.77
2023-01-28T12:01:19.495Z,13.35
2023-01-28T12:04:18.453Z,11.98
2023-01-28T12:07:12.872Z,20.67
2023-01-28T12:09:44.077Z,10.88
2023-01-28T12:12:22.224Z,35.33
2023-01-28T12:15:37.330Z,10.77
2023-01-28T12:18:38.069Z,12.75
2023-01-28T12:21:12.502Z,10.43
2023-01-28T12:24:10.330Z,10.57
2023-01-28T12:27:01.509Z,12.63
2023-01-28T12:29:39.857Z,11.80
2023-01-28T12:32:31.496Z,10.23
2023-01-28T12:35:38.262Z,9.73
2023-01-28T12:38:20.049Z,9.30
2023-01-28T12:41:04.745Z,9.32
2023-01-28T12:43:51.462Z,9.35
2023-01-28T12:46:35.424Z,11.65
2023-01-28T12:49:15.930Z,10.63
2023-01-28T12:51:57.132Z,8.35
2023-01-28T12:54:38.622Z,10.43
2023-01-28T12:57:14.646Z,10.57
2023-01-28T12:59:51.547Z,11.48
2023-01-28T13:02:42.887Z,9.70
2023-01-28T13:05:17.049Z,8.93
2023-01-28T13:07:55.862Z,8.45
2023-01-28T13:10:36.343Z,8.38
2023-01-28T13:13:05.861Z,8.63
2023-01-28T13:15:40.792Z,10.40
2023-01-28T13:18:34.765Z,9.63
2023-01-28T13:21:03.832Z,7.85
2023-01-28T13:23:49.881Z,7.80
2023-01-28T13:26:18.374Z,8.75
2023-01-28T13:28:48.610Z,8.70
2023-01-28T13:31:20.057Z,10.40
2023-01-28T13:34:01.930Z,9.60
2023-01-28T13:36:34.533Z,8.88
2023-01-28T13:39:24.770Z,8.95
2023-01-28T13:41:56.417Z,8.88
2023-01-28T13:44:31.312Z,8.13
2023-01-28T13:47:15.451Z,8.65
2023-01-28T13:49:47.674Z,7.78
2023-01-28T13:54:54.999Z,8.18
2023-01-28T13:58:00.106Z,8.20
2023-01-28T14:00:56.612Z,8.75
2023-01-28T14:03:34.300Z,9.77
2023-01-28T14:06:40.244Z,7.80
2023-01-28T14:09:29.631Z,11.52
2023-01-28T14:12:16.261Z,11.73
2023-01-28T14:15:04.577Z,11.10
2023-01-28T14:17:44.748Z,7.80
2023-01-28T14:20:17.460Z,7.10
2023-01-28T14:22:47.037Z,7.28
2023-01-28T14:25:24.189Z,8.07
2023-01-28T14:27:54.325Z,8.07
2023-01-28T14:30:50.435Z,7.45
2023-01-28T14:33:19.130Z,7.75
2023-01-28T14:35:49.091Z,6.97
2023-01-28T14:38:21.576Z,7.38
2023-01-28T14:40:55.642Z,7.50
2023-01-28T14:43:26.846Z,7.88
2023-01-28T14:46:13.567Z,7.82
2023-01-28T14:49:02.923Z,8.23
2023-01-28T14:51:52.298Z,8.13
2023-01-28T14:54:29.102Z,8.68
2023-01-28T14:57:11.100Z,8.10
2023-01-28T14:59:49.643Z,7.43
2023-01-28T15:02:26.500Z,8.20
2023-01-28T15:04:55.851Z,6.95
2023-01-28T15:07:27.027Z,8.48
2023-01-28T15:10:16.379Z,7.65
2023-01-28T15:12:50.464Z,10.02
2023-01-28T15:15:33.295Z,7.47
2023-01-28T15:18:05.654Z,6.53
2023-01-28T15:20:34.278Z,8.15
2023-01-28T15:23:06.784Z,7.55
2023-01-28T15:25:35.264Z,7.88
2023-01-28T15:28:04.065Z,9.27
2023-01-28T15:30:32.992Z,9.93
2023-01-28T15:33:17.163Z,7.43
2023-01-28T15:35:50.503Z,9.40
2023-01-28T15:38:19.266Z,9.85
2023-01-28T15:41:07.968Z,10.70
2023-01-28T15:43:38.689Z,9.40
2023-01-28T15:46:13.739Z,9.23
2023-01-28T15:48:46.761Z,8.10
2023-01-28T15:51:27.464Z,9.25
2023-01-28T15:54:00.029Z,7.53
2023-01-28T15:56:30.544Z,9.27
2023-01-28T15:59:31.160Z,8.57
2023-01-28T16:02:22.585Z,9.23
2023-01-28T16:05:08.176Z,7.50
2023-01-28T16:07:45.436Z,7.78
2023-01-28T16:10:40.181Z,9.02
2023-01-28T16:13:21.630Z,9.60
2023-01-28T16:15:53.101Z,9.93
2023-01-28T16:18:24.528Z,8.77
2023-01-28T16:20:53.757Z,7.63
2023-01-28T16:23:27.151Z,8.98
2023-01-28T16:26:26.566Z,7.47
2023-01-28T16:28:55.224Z,12.43
2023-01-28T16:31:23.760Z,11.07
2023-01-28T16:33:52.502Z,8.77
2023-01-28T16:36:20.906Z,8.07
2023-01-28T16:38:49.313Z,8.63
2023-01-28T16:41:29.751Z,9.18
2023-01-28T16:44:01.103Z,7.50
2023-01-28T16:46:29.656Z,8.77
2023-01-28T16:48:58.220Z,10.07
2023-01-28T16:51:26.649Z,17.77
2023-01-28T16:53:55.469Z,13.82
2023-01-28T16:56:45.648Z,12.70
2023-01-28T16:59:15.903Z,9.93
2023-01-28T17:01:45.330Z,12.95
2023-01-28T17:04:14.238Z,12.23
2023-01-28T17:06:44.424Z,11.55
2023-01-28T17:09:14.471Z,20.95
2023-01-28T17:11:43.184Z,10.00
2023-01-28T17:14:11.888Z,9.52
2023-01-28T17:16:40.543Z,10.45
2023-01-28T17:19:09.125Z,10.77
2023-01-28T17:21:37.562Z,11.82
2023-01-28T17:24:06.404Z,18.13
2023-01-28T17:26:36.604Z,17.50
2023-01-28T17:29:05.898Z,14.18
2023-01-28T17:31:35.600Z,17.55
2023-01-28T17:34:06.842Z,20.60
2023-01-28T17:36:35.475Z,17.48
2023-01-28T17:39:06.865Z,11.20
2023-01-28T17:41:35.636Z,12.50
2023-01-28T17:44:04.558Z,13.38
2023-01-28T17:46:33.148Z,11.30
2023-01-28T17:49:02.237Z,12.10
2023-01-28T17:51:30.728Z,10.65
2023-01-28T17:53:59.142Z,14.05
2023-01-28T17:56:29.033Z,13.43
2023-01-28T17:59:03.520Z,13.57
2023-01-28T18:01:33.426Z,16.42
2023-01-28T18:04:01.933Z,16.92
2023-01-28T18:06:34.811Z,21.67
2023-01-28T18:09:04.929Z,18.48
2023-01-28T18:11:33.379Z,19.70
2023-01-28T18:14:01.900Z,17.30
2023-01-28T18:16:30.554Z,48.92
2023-01-28T18:18:58.950Z,16.95
2023-01-28T18:21:53.837Z,17.60
2023-01-28T18:24:25.017Z,21.50
2023-01-28T18:26:58.804Z,22.08
2023-01-28T18:29:28.810Z,18.10
2023-01-28T18:31:59.502Z,19.15
2023-01-28T18:34:31.452Z,30.13
2023-01-28T18:37:00.376Z,19.50
2023-01-28T18:39:32.298Z,14.90
2023-01-28T18:42:01.135Z,22.00
2023-01-28T18:44:31.420Z,16.17
2023-01-28T18:46:59.789Z,18.77
2023-01-28T18:49:28.250Z,20.75
2023-01-28T18:51:56.675Z,28.63
2023-01-28T18:54:25.190Z,113.50
2023-01-28T18:56:53.714Z,82.35
2023-01-28T18:59:22.220Z,47.72
2023-01-28T19:01:50.812Z,57.38
2023-01-28T19:04:19.828Z,190.63
2023-01-28T19:06:48.477Z,65.82
2023-01-28T19:09:17.768Z,30.98
2023-01-28T19:11:48.270Z,22.35
2023-01-28T19:14:17.065Z,16.48
2023-01-28T19:16:45.650Z,166.13
2023-01-28T19:19:14.180Z,63.90
2023-01-28T19:21:42.624Z,40.00
2023-01-28T19:24:14.094Z,84.20
2023-01-28T19:26:44.584Z,169.10
2023-01-28T19:29:15.689Z,86.65
2023-01-28T19:31:48.441Z,35.65
2023-01-28T19:34:17.185Z,31.10
2023-01-28T19:36:46.656Z,30.45
2023-01-28T19:39:15.764Z,32.45
2023-01-28T19:41:44.760Z,35.75
2023-01-28T19:44:13.473Z,29.30
2023-01-28T19:46:41.982Z,25.00
2023-01-28T19:49:12.319Z,25.42
2023-01-28T19:51:40.810Z,30.30
2023-01-28T19:54:09.619Z,31.85
2023-01-28T19:56:39.157Z,28.10
2023-01-28T19:59:07.549Z,25.27
2023-01-28T20:01:36.716Z,53.97
2023-01-28T20:04:05.410Z,36.97
2023-01-28T20:06:35.409Z,41.63
2023-01-28T20:09:13.122Z,38.53
2023-01-28T20:11:41.635Z,38.50
2023-01-28T20:14:10.174Z,37.97
2023-01-28T20:16:38.585Z,109.18
2023-01-28T20:19:12.789Z,60.15
2023-01-28T20:21:41.259Z,65.70
2023-01-28T20:24:15.108Z,34.03
2023-01-28T20:26:44.984Z,27.88
2023-01-28T20:29:17.341Z,24.95
2023-01-28T20:31:52.063Z,31.75
2023-01-28T20:34:29.503Z,28.15
2023-01-28T20:36:57.987Z,30.58
2023-01-28T20:39:26.491Z,34.95
2023-01-28T20:41:54.979Z,31.98
2023-01-28T20:44:23.460Z,27.20
2023-01-28T20:46:51.946Z,34.75
2023-01-28T20:49:20.345Z,55.20
2023-01-28T20:51:48.757Z,27.45
2023-01-28T20:54:21.031Z,32.88
2023-01-28T20:59:19.146Z,24.10
2023-01-28T21:01:47.701Z,27.35
2023-01-28T21:04:17.136Z,28.33
2023-01-28T21:06:45.665Z,29.45
2023-01-28T21:09:14.202Z,29.05
2023-01-28T21:11:43.019Z,32.50
2023-01-28T21:14:16.765Z,29.35
2023-01-28T21:16:45.305Z,30.67
2023-01-28T21:19:13.796Z,29.52
2023-01-28T21:21:42.949Z,31.98
2023-01-28T21:24:11.982Z,47.08
2023-01-28T21:26:40.430Z,33.72
2023-01-28T21:29:08.896Z,25.15
2023-01-28T21:31:37.301Z,27.25
2023-01-28T21:34:06.319Z,28.13
2023-01-28T21:36:37.128Z,31.23
2023-01-28T21:39:05.612Z,25.23
2023-01-28T21:41:34.098Z,25.48
2023-01-28T21:44:02.548Z,25.08
2023-01-28T21:46:33.710Z,25.63
2023-01-28T21:49:03.806Z,27.70
2023-01-28T21:51:35.346Z,23.48
2023-01-28T21:54:09.890Z,20.98
2023-01-28T21:56:38.478Z,23.63
2023-01-28T21:59:25.097Z,24.60
2023-01-28T22:01:55.871Z,23.83
2023-01-28T22:04:27.035Z,28.63
2023-01-28T22:06:55.671Z,23.65
2023-01-28T22:09:24.967Z,25.33
2023-01-28T22:11:53.462Z,28.67
2023-01-28T22:14:22.044Z,23.33
2023-01-28T22:16:50.948Z,23.73
2023-01-28T22:19:19.555Z,23.45
2023-01-28T22:21:48.786Z,25.50
2023-01-28T22:24:24.904Z,22.13
2023-01-28T22:26:54.324Z,24.75
2023-01-28T22:29:24.201Z,21.60
2023-01-28T22:31:54.124Z,23.20
2023-01-28T22:34:22.869Z,26.35
2023-01-28T22:36:51.886Z,20.30
2023-01-28T22:39:20.371Z,25.13
2023-01-28T22:41:48.796Z,22.55
2023-01-28T22:44:19.659Z,24.52
2023-01-28T22:46:48.230Z,27.10
2023-01-28T22:49:16.875Z,29.27
2023-01-28T22:51:45.355Z,27.50
2023-01-28T22:54:15.174Z,23.40
2023-01-28T22:56:43.736Z,27.42
2023-01-28T22:59:12.742Z,23.02
2023-01-28T23:01:41.510Z,23.83
2023-01-28T23:04:10.037Z,22.88
2023-01-28T23:06:38.708Z,52.75
2023-01-28T23:09:07.426Z,30.20
2023-01-28T23:11:36.263Z,27.95
2023-01-28T23:14:23.375Z,25.95
2023-01-28T23:17:10.204Z,28.30
2023-01-28T23:19:57.165Z,28.50
2023-01-28T23:22:49.140Z,30.92
2023-01-28T23:25:19.620Z,28.00
2023-01-28T23:27:48.019Z,26.83
2023-01-28T23:30:17.230Z,24.33
2023-01-28T23:32:48.317Z,29.60
2023-01-28T23:35:19.024Z,23.30
2023-01-28T23:37:47.911Z,31.15
2023-01-28T23:40:17.024Z,24.08
2023-01-28T23:42:49.639Z,25.27
2023-01-28T23:45:18.605Z,24.05
2023-01-28T23:47:48.112Z,25.65
2023-01-28T23:50:17.078Z,23.73
2023-01-28T23:52:45.623Z,23.73
2023-01-28T23:55:15.861Z,22.05
2023-01-28T23:57:44.239Z,28.15
